sensor_id;sensor_type;location;lat;lon;timestamp;temperature;humidity
12874;DHT22;6505;51.114;13.128;2023-04-01T00:00:54;16.80;62.70
12874;DHT22;6505;51.114;13.128;2023-04-01T00:03:25;16.80;63.00
12874;DHT22;6505;51.114;13.128;2023-04-01T00:05:56;16.70;63.10
12874;DHT22;6505;51.114;13.128;2023-04-01T00:08:26;16.80;63.00
12874;DHT22;6505;51.114;13.128;2023-04-01T00:10:55;16.70;62.90
12874;DHT22;6505;51.114;13.128;2023-04-01T00:13:24;16.70;62.70
12874;DHT22;6505;51.114;13.128;2023-04-01T00:15:54;16.70;62.80
12874;DHT22;6505;51.114;13.128;2023-04-01T00:18:25;16.70;62.90
12874;DHT22;6505;51.114;13.128;2023-04-01T00:20:53;16.80;63.00
12874;DHT22;6505;51.114;13.128;2023-04-01T00:23:22;16.70;62.90
12874;DHT22;6505;51.114;13.128;2023-04-01T00:25:50;16.70;63.20
12874;DHT22;6505;51.114;13.128;2023-04-01T00:28:18;16.70;63.10
12874;DHT22;6505;51.114;13.128;2023-04-01T00:30:47;16.70;63.40
12874;DHT22;6505;51.114;13.128;2023-04-01T00:33:15;16.70;63.20
12874;DHT22;6505;51.114;13.128;2023-04-01T00:35:45;16.70;63.30
12874;DHT22;6505;51.114;13.128;2023-04-01T00:38:14;16.70;63.40
12874;DHT22;6505;51.114;13.128;2023-04-01T00:40:44;16.70;63.30
12874;DHT22;6505;51.114;13.128;2023-04-01T00:43:16;16.70;63.40
12874;DHT22;6505;51.114;13.128;2023-04-01T00:45:48;16.70;63.40
12874;DHT22;6505;51.114;13.128;2023-04-01T00:48:18;16.70;63.60
12874;DHT22;6505;51.114;13.128;2023-04-01T00:50:53;16.70;63.80
12874;DHT22;6505;51.114;13.128;2023-04-01T00:53:24;16.70;63.70
12874;DHT22;6505;51.114;13.128;2023-04-01T00:56:00;16.70;63.80
12874;DHT22;6505;51.114;13.128;2023-04-01T00:58:36;16.70;63.70
12874;DHT22;6505;51.114;13.128;2023-04-01T01:01:08;16.70;64.30
12874;DHT22;6505;51.114;13.128;2023-04-01T01:03:37;16.70;63.70
12874;DHT22;6505;51.114;13.128;2023-04-01T01:06:11;16.70;63.40
12874;DHT22;6505;51.114;13.128;2023-04-01T01:09:10;16.70;63.70
12874;DHT22;6505;51.114;13.128;2023-04-01T01:11:49;16.70;63.80
12874;DHT22;6505;51.114;13.128;2023-04-01T01:14:28;16.70;63.70
12874;DHT22;6505;51.114;13.128;2023-04-01T01:17:13;16.70;63.80
12874;DHT22;6505;51.114;13.128;2023-04-01T01:19:57;16.70;63.70
12874;DHT22;6505;51.114;13.128;2023-04-01T01:23:04;16.70;63.70
12874;DHT22;6505;51.114;13.128;2023-04-01T01:26:03;16.70;63.60
12874;DHT22;6505;51.114;13.128;2023-04-01T01:28:59;16.60;63.30
12874;DHT22;6505;51.114;13.128;2023-04-01T01:31:37;16.70;63.40
12874;DHT22;6505;51.114;13.128;2023-04-01T01:34:15;16.70;63.60
12874;DHT22;6505;51.114;13.128;2023-04-01T01:36:54;16.60;64.20
12874;DHT22;6505;51.114;13.128;2023-04-01T01:39:29;16.60;63.40
12874;DHT22;6505;51.114;13.128;2023-04-01T01:42:01;16.70;63.10
12874;DHT22;6505;51.114;13.128;2023-04-01T01:44:33;16.60;63.30
12874;DHT22;6505;51.114;13.128;2023-04-01T01:47:03;16.60;63.40
12874;DHT22;6505;51.114;13.128;2023-04-01T01:49:33;16.60;63.30
12874;DHT22;6505;51.114;13.128;2023-04-01T01:52:04;16.60;63.40
12874;DHT22;6505;51.114;13.128;2023-04-01T01:54:32;16.60;63.10
12874;DHT22;6505;51.114;13.128;2023-04-01T01:57:04;16.60;63.10
12874;DHT22;6505;51.114;13.128;2023-04-01T01:59:38;16.60;63.40
12874;DHT22;6505;51.114;13.128;2023-04-01T02:02:09;16.60;63.60
12874;DHT22;6505;51.114;13.128;2023-04-01T02:04:40;16.60;63.40
12874;DHT22;6505;51.114;13.128;2023-04-01T02:07:15;16.60;63.20
12874;DHT22;6505;51.114;13.128;2023-04-01T02:09:48;16.60;63.30
12874;DHT22;6505;51.114;13.128;2023-04-01T02:12:19;16.60;63.30
12874;DHT22;6505;51.114;13.128;2023-04-01T02:14:52;16.60;63.40
12874;DHT22;6505;51.114;13.128;2023-04-01T02:17:24;16.60;63.60
12874;DHT22;6505;51.114;13.128;2023-04-01T02:19:58;16.60;63.60
12874;DHT22;6505;51.114;13.128;2023-04-01T02:22:34;16.60;63.60
12874;DHT22;6505;51.114;13.128;2023-04-01T02:25:12;16.60;63.40
12874;DHT22;6505;51.114;13.128;2023-04-01T02:27:43;16.70;63.60
12874;DHT22;6505;51.114;13.128;2023-04-01T02:30:14;16.60;63.60
12874;DHT22;6505;51.114;13.128;2023-04-01T02:32:45;16.60;63.40
12874;DHT22;6505;51.114;13.128;2023-04-01T02:35:15;16.60;63.40
12874;DHT22;6505;51.114;13.128;2023-04-01T02:37:48;16.60;63.30
12874;DHT22;6505;51.114;13.128;2023-04-01T02:40:18;16.60;63.40
12874;DHT22;6505;51.114;13.128;2023-04-01T02:42:46;16.60;63.30
12874;DHT22;6505;51.114;13.128;2023-04-01T02:45:14;16.60;63.20
12874;DHT22;6505;51.114;13.128;2023-04-01T02:47:42;16.50;63.20
12874;DHT22;6505;51.114;13.128;2023-04-01T02:50:11;16.60;63.20
12874;DHT22;6505;51.114;13.128;2023-04-01T02:52:39;16.60;63.30
12874;DHT22;6505;51.114;13.128;2023-04-01T02:55:09;16.60;63.30
12874;DHT22;6505;51.114;13.128;2023-04-01T02:57:37;16.50;63.20
12874;DHT22;6505;51.114;13.128;2023-04-01T03:00:06;16.50;63.10
12874;DHT22;6505;51.114;13.128;2023-04-01T03:02:38;16.50;63.40
12874;DHT22;6505;51.114;13.128;2023-04-01T03:05:07;16.50;63.20
12874;DHT22;6505;51.114;13.128;2023-04-01T03:07:35;16.50;63.40
12874;DHT22;6505;51.114;13.128;2023-04-01T03:10:03;16.50;63.20
12874;DHT22;6505;51.114;13.128;2023-04-01T03:12:33;16.50;63.40
12874;DHT22;6505;51.114;13.128;2023-04-01T03:15:02;16.50;63.30
12874;DHT22;6505;51.114;13.128;2023-04-01T03:17:38;16.50;63.40
12874;DHT22;6505;51.114;13.128;2023-04-01T03:20:08;16.50;63.40
12874;DHT22;6505;51.114;13.128;2023-04-01T03:22:37;16.50;63.40
12874;DHT22;6505;51.114;13.128;2023-04-01T03:25:10;16.50;63.20
12874;DHT22;6505;51.114;13.128;2023-04-01T03:27:39;16.50;63.30
12874;DHT22;6505;51.114;13.128;2023-04-01T03:30:08;16.50;63.30
12874;DHT22;6505;51.114;13.128;2023-04-01T03:32:45;16.60;63.50
12874;DHT22;6505;51.114;13.128;2023-04-01T03:35:14;16.50;63.20
12874;DHT22;6505;51.114;13.128;2023-04-01T03:37:42;16.50;63.30
12874;DHT22;6505;51.114;13.128;2023-04-01T03:40:10;16.50;63.20
12874;DHT22;6505;51.114;13.128;2023-04-01T03:42:40;16.50;63.40
12874;DHT22;6505;51.114;13.128;2023-04-01T03:45:09;16.50;63.30
12874;DHT22;6505;51.114;13.128;2023-04-01T03:47:38;16.50;63.30
12874;DHT22;6505;51.114;13.128;2023-04-01T03:50:07;16.50;63.10
12874;DHT22;6505;51.114;13.128;2023-04-01T03:52:36;16.50;63.00
12874;DHT22;6505;51.114;13.128;2023-04-01T03:55:04;16.50;62.70
12874;DHT22;6505;51.114;13.128;2023-04-01T03:57:33;16.50;62.70
12874;DHT22;6505;51.114;13.128;2023-04-01T04:00:14;16.50;62.50
12874;DHT22;6505;51.114;13.128;2023-04-01T04:02:44;16.50;62.70
12874;DHT22;6505;51.114;13.128;2023-04-01T04:05:18;16.50;62.50
12874;DHT22;6505;51.114;13.128;2023-04-01T04:07:46;16.50;62.40
12874;DHT22;6505;51.114;13.128;2023-04-01T04:10:14;16.50;62.40
12874;DHT22;6505;51.114;13.128;2023-04-01T04:12:42;16.50;62.20
12874;DHT22;6505;51.114;13.128;2023-04-01T04:15:11;16.50;62.10
12874;DHT22;6505;51.114;13.128;2023-04-01T04:17:41;16.50;62.10
12874;DHT22;6505;51.114;13.128;2023-04-01T04:20:09;16.50;62.00
12874;DHT22;6505;51.114;13.128;2023-04-01T04:22:37;16.40;62.10
12874;DHT22;6505;51.114;13.128;2023-04-01T04:25:08;16.50;62.20
12874;DHT22;6505;51.114;13.128;2023-04-01T04:27:37;16.50;62.60
12874;DHT22;6505;51.114;13.128;2023-04-01T04:30:08;16.40;62.50
12874;DHT22;6505;51.114;13.128;2023-04-01T04:32:37;16.50;62.70
12874;DHT22;6505;51.114;13.128;2023-04-01T04:35:07;16.40;62.40
12874;DHT22;6505;51.114;13.128;2023-04-01T04:37:36;16.50;63.40
12874;DHT22;6505;51.114;13.128;2023-04-01T04:40:06;16.50;62.70
12874;DHT22;6505;51.114;13.128;2023-04-01T04:42:35;16.50;62.70
12874;DHT22;6505;51.114;13.128;2023-04-01T04:45:09;16.50;62.70
12874;DHT22;6505;51.114;13.128;2023-04-01T04:47:45;16.50;63.00
12874;DHT22;6505;51.114;13.128;2023-04-01T04:50:14;16.50;62.70
12874;DHT22;6505;51.114;13.128;2023-04-01T04:52:43;16.50;62.60
12874;DHT22;6505;51.114;13.128;2023-04-01T04:55:11;16.50;62.70
12874;DHT22;6505;51.114;13.128;2023-04-01T04:57:41;16.50;62.60
12874;DHT22;6505;51.114;13.128;2023-04-01T05:00:10;16.50;62.70
12874;DHT22;6505;51.114;13.128;2023-04-01T05:02:47;16.50;62.90
12874;DHT22;6505;51.114;13.128;2023-04-01T05:05:18;16.50;62.60
12874;DHT22;6505;51.114;13.128;2023-04-01T05:07:46;16.40;62.60
12874;DHT22;6505;51.114;13.128;2023-04-01T05:10:14;16.40;62.70
12874;DHT22;6505;51.114;13.128;2023-04-01T05:12:42;16.40;62.70
12874;DHT22;6505;51.114;13.128;2023-04-01T05:15:15;16.50;63.00
12874;DHT22;6505;51.114;13.128;2023-04-01T05:17:43;16.40;63.00
12874;DHT22;6505;51.114;13.128;2023-04-01T05:20:12;16.40;63.00
12874;DHT22;6505;51.114;13.128;2023-04-01T05:22:43;16.40;63.20
12874;DHT22;6505;51.114;13.128;2023-04-01T05:25:11;16.40;63.80
12874;DHT22;6505;51.114;13.128;2023-04-01T05:27:39;16.40;63.10
12874;DHT22;6505;51.114;13.128;2023-04-01T05:30:08;16.40;63.10
12874;DHT22;6505;51.114;13.128;2023-04-01T05:33:03;16.50;63.40
12874;DHT22;6505;51.114;13.128;2023-04-01T05:35:31;16.40;63.10
12874;DHT22;6505;51.114;13.128;2023-04-01T05:38:01;16.40;63.10
12874;DHT22;6505;51.114;13.128;2023-04-01T05:40:30;16.40;63.10
12874;DHT22;6505;51.114;13.128;2023-04-01T05:42:59;16.40;62.80
12874;DHT22;6505;51.114;13.128;2023-04-01T05:45:27;16.40;63.20
12874;DHT22;6505;51.114;13.128;2023-04-01T05:48:11;16.40;63.10
12874;DHT22;6505;51.114;13.128;2023-04-01T05:50:40;16.40;63.00
12874;DHT22;6505;51.114;13.128;2023-04-01T05:53:11;16.40;63.10
12874;DHT22;6505;51.114;13.128;2023-04-01T05:55:42;16.40;63.30
12874;DHT22;6505;51.114;13.128;2023-04-01T05:58:10;16.40;63.30
12874;DHT22;6505;51.114;13.128;2023-04-01T06:00:40;16.40;63.30
12874;DHT22;6505;51.114;13.128;2023-04-01T06:03:08;16.50;63.40
12874;DHT22;6505;51.114;13.128;2023-04-01T06:05:46;16.40;63.30
12874;DHT22;6505;51.114;13.128;2023-04-01T06:08:18;16.50;63.70
12874;DHT22;6505;51.114;13.128;2023-04-01T06:10:55;16.40;63.50
12874;DHT22;6505;51.114;13.128;2023-04-01T06:13:42;16.50;63.90
12874;DHT22;6505;51.114;13.128;2023-04-01T06:16:30;16.50;63.70
12874;DHT22;6505;51.114;13.128;2023-04-01T06:19:20;16.50;63.60
12874;DHT22;6505;51.114;13.128;2023-04-01T06:22:14;16.50;64.10
12874;DHT22;6505;51.114;13.128;2023-04-01T06:28:04;16.50;64.10
12874;DHT22;6505;51.114;13.128;2023-04-01T06:30:49;16.50;63.90
12874;DHT22;6505;51.114;13.128;2023-04-01T06:33:41;16.50;64.20
12874;DHT22;6505;51.114;13.128;2023-04-01T06:36:43;16.50;64.20
12874;DHT22;6505;51.114;13.128;2023-04-01T06:39:39;16.50;64.10
12874;DHT22;6505;51.114;13.128;2023-04-01T06:42:29;16.50;64.00
12874;DHT22;6505;51.114;13.128;2023-04-01T06:45:54;16.50;63.80
12874;DHT22;6505;51.114;13.128;2023-04-01T06:49:02;16.50;63.50
12874;DHT22;6505;51.114;13.128;2023-04-01T06:52:02;16.50;63.70
12874;DHT22;6505;51.114;13.128;2023-04-01T06:55:02;16.50;63.50
12874;DHT22;6505;51.114;13.128;2023-04-01T06:58:19;16.50;63.20
12874;DHT22;6505;51.114;13.128;2023-04-01T07:00:52;16.50;63.20
12874;DHT22;6505;51.114;13.128;2023-04-01T07:03:29;16.50;63.20
12874;DHT22;6505;51.114;13.128;2023-04-01T07:06:05;16.50;63.50
12874;DHT22;6505;51.114;13.128;2023-04-01T07:08:46;16.50;63.30
12874;DHT22;6505;51.114;13.128;2023-04-01T07:11:24;16.50;64.20
12874;DHT22;6505;51.114;13.128;2023-04-01T07:14:20;16.50;63.50
12874;DHT22;6505;51.114;13.128;2023-04-01T07:16:54;16.50;63.60
12874;DHT22;6505;51.114;13.128;2023-04-01T07:19:32;16.50;63.80
12874;DHT22;6505;51.114;13.128;2023-04-01T07:22:16;16.50;63.70
12874;DHT22;6505;51.114;13.128;2023-04-01T07:25:03;16.50;63.70
12874;DHT22;6505;51.114;13.128;2023-04-01T07:27:38;16.50;63.70
12874;DHT22;6505;51.114;13.128;2023-04-01T07:30:14;16.60;63.90
12874;DHT22;6505;51.114;13.128;2023-04-01T07:32:46;16.60;63.90
12874;DHT22;6505;51.114;13.128;2023-04-01T07:35:25;16.60;63.90
12874;DHT22;6505;51.114;13.128;2023-04-01T07:38:04;16.60;64.10
12874;DHT22;6505;51.114;13.128;2023-04-01T07:40:45;16.60;63.70
12874;DHT22;6505;51.114;13.128;2023-04-01T07:43:49;16.70;63.40
12874;DHT22;6505;51.114;13.128;2023-04-01T07:46:47;16.60;63.10
12874;DHT22;6505;51.114;13.128;2023-04-01T07:49:29;16.60;62.80
12874;DHT22;6505;51.114;13.128;2023-04-01T07:52:05;16.70;62.90
12874;DHT22;6505;51.114;13.128;2023-04-01T07:54:47;16.70;62.90
12874;DHT22;6505;51.114;13.128;2023-04-01T07:57:23;16.70;63.00
12874;DHT22;6505;51.114;13.128;2023-04-01T08:00:05;16.70;63.00
12874;DHT22;6505;51.114;13.128;2023-04-01T08:03:12;16.70;63.40
12874;DHT22;6505;51.114;13.128;2023-04-01T08:05:54;16.80;63.80
12874;DHT22;6505;51.114;13.128;2023-04-01T08:08:34;16.70;63.50
12874;DHT22;6505;51.114;13.128;2023-04-01T08:11:47;16.80;64.10
12874;DHT22;6505;51.114;13.128;2023-04-01T08:14:52;16.80;63.40
12874;DHT22;6505;51.114;13.128;2023-04-01T08:18:01;16.80;63.20
12874;DHT22;6505;51.114;13.128;2023-04-01T08:20:38;16.80;63.10
12874;DHT22;6505;51.114;13.128;2023-04-01T08:23:13;16.80;63.10
12874;DHT22;6505;51.114;13.128;2023-04-01T08:25:49;16.80;63.30
12874;DHT22;6505;51.114;13.128;2023-04-01T08:28:25;16.80;63.40
12874;DHT22;6505;51.114;13.128;2023-04-01T08:31:05;16.90;63.70
12874;DHT22;6505;51.114;13.128;2023-04-01T08:33:44;16.90;63.50
12874;DHT22;6505;51.114;13.128;2023-04-01T08:36:17;16.90;63.50
12874;DHT22;6505;51.114;13.128;2023-04-01T08:39:03;16.90;63.20
12874;DHT22;6505;51.114;13.128;2023-04-01T08:45:29;16.90;63.30
12874;DHT22;6505;51.114;13.128;2023-04-01T08:48:23;17.00;63.30
12874;DHT22;6505;51.114;13.128;2023-04-01T08:54:48;17.00;63.80
12874;DHT22;6505;51.114;13.128;2023-04-01T09:01:26;17.00;63.50
12874;DHT22;6505;51.114;13.128;2023-04-01T09:04:52;17.00;63.50
12874;DHT22;6505;51.114;13.128;2023-04-01T09:07:40;17.00;63.30
12874;DHT22;6505;51.114;13.128;2023-04-01T09:10:24;17.00;63.20
12874;DHT22;6505;51.114;13.128;2023-04-01T09:13:48;17.10;63.30
12874;DHT22;6505;51.114;13.128;2023-04-01T09:17:01;17.10;63.20
12874;DHT22;6505;51.114;13.128;2023-04-01T09:19:54;17.10;63.00
12874;DHT22;6505;51.114;13.128;2023-04-01T09:22:50;17.10;63.00
12874;DHT22;6505;51.114;13.128;2023-04-01T09:25:45;17.10;62.60
12874;DHT22;6505;51.114;13.128;2023-04-01T09:28:27;17.10;62.50
12874;DHT22;6505;51.114;13.128;2023-04-01T09:31:16;17.20;62.60
12874;DHT22;6505;51.114;13.128;2023-04-01T09:34:31;17.20;62.50
12874;DHT22;6505;51.114;13.128;2023-04-01T09:37:19;17.20;62.60
12874;DHT22;6505;51.114;13.128;2023-04-01T09:40:08;17.20;62.90
12874;DHT22;6505;51.114;13.128;2023-04-01T09:42:55;17.20;62.90
12874;DHT22;6505;51.114;13.128;2023-04-01T09:45:46;17.20;63.10
12874;DHT22;6505;51.114;13.128;2023-04-01T09:48:35;17.20;63.00
12874;DHT22;6505;51.114;13.128;2023-04-01T09:51:26;17.20;62.40
12874;DHT22;6505;51.114;13.128;2023-04-01T09:54:19;17.30;62.20
12874;DHT22;6505;51.114;13.128;2023-04-01T10:04:23;17.30;62.20
12874;DHT22;6505;51.114;13.128;2023-04-01T10:07:30;17.30;62.90
12874;DHT22;6505;51.114;13.128;2023-04-01T10:13:58;17.40;61.90
12874;DHT22;6505;51.114;13.128;2023-04-01T10:20:29;17.40;62.90
12874;DHT22;6505;51.114;13.128;2023-04-01T10:23:31;17.40;63.60
12874;DHT22;6505;51.114;13.128;2023-04-01T10:30:35;17.40;63.10
12874;DHT22;6505;51.114;13.128;2023-04-01T10:33:50;17.50;63.10
12874;DHT22;6505;51.114;13.128;2023-04-01T10:36:52;17.50;62.40
12874;DHT22;6505;51.114;13.128;2023-04-01T10:40:07;17.50;62.30
12874;DHT22;6505;51.114;13.128;2023-04-01T10:50:30;17.60;63.10
12874;DHT22;6505;51.114;13.128;2023-04-01T10:56:51;17.60;63.20
12874;DHT22;6505;51.114;13.128;2023-04-01T11:03:35;17.60;63.40
12874;DHT22;6505;51.114;13.128;2023-04-01T11:07:31;17.60;63.40
12874;DHT22;6505;51.114;13.128;2023-04-01T11:10:57;17.70;63.20
12874;DHT22;6505;51.114;13.128;2023-04-01T11:13:59;17.70;63.30
12874;DHT22;6505;51.114;13.128;2023-04-01T11:17:27;17.70;63.10
12874;DHT22;6505;51.114;13.128;2023-04-01T11:20:28;17.70;63.20
12874;DHT22;6505;51.114;13.128;2023-04-01T11:23:30;17.70;63.20
12874;DHT22;6505;51.114;13.128;2023-04-01T11:26:49;17.70;63.00
12874;DHT22;6505;51.114;13.128;2023-04-01T11:30:02;17.70;63.20
12874;DHT22;6505;51.114;13.128;2023-04-01T11:32:49;17.80;63.40
12874;DHT22;6505;51.114;13.128;2023-04-01T11:35:35;17.80;63.30
12874;DHT22;6505;51.114;13.128;2023-04-01T11:38:23;17.80;63.30
12874;DHT22;6505;51.114;13.128;2023-04-01T11:41:25;17.80;63.50
12874;DHT22;6505;51.114;13.128;2023-04-01T11:44:18;17.80;63.70
12874;DHT22;6505;51.114;13.128;2023-04-01T11:47:40;17.80;63.60
12874;DHT22;6505;51.114;13.128;2023-04-01T11:50:24;17.80;63.80
12874;DHT22;6505;51.114;13.128;2023-04-01T11:53:18;17.80;63.40
12874;DHT22;6505;51.114;13.128;2023-04-01T11:56:06;17.90;63.00
12874;DHT22;6505;51.114;13.128;2023-04-01T11:58:53;17.90;62.90
12874;DHT22;6505;51.114;13.128;2023-04-01T12:01:36;17.90;62.70
12874;DHT22;6505;51.114;13.128;2023-04-01T12:04:36;17.90;62.60
12874;DHT22;6505;51.114;13.128;2023-04-01T12:07:21;17.90;62.20
12874;DHT22;6505;51.114;13.128;2023-04-01T12:10:02;17.90;61.60
12874;DHT22;6505;51.114;13.128;2023-04-01T12:12:45;17.90;61.00
12874;DHT22;6505;51.114;13.128;2023-04-01T12:15:33;18.00;60.70
12874;DHT22;6505;51.114;13.128;2023-04-01T12:18:17;18.00;60.40
12874;DHT22;6505;51.114;13.128;2023-04-01T12:20:57;18.00;61.20
12874;DHT22;6505;51.114;13.128;2023-04-01T12:23:42;18.00;61.60
12874;DHT22;6505;51.114;13.128;2023-04-01T12:26:44;18.00;62.50
12874;DHT22;6505;51.114;13.128;2023-04-01T12:29:54;18.00;62.80
12874;DHT22;6505;51.114;13.128;2023-04-01T12:33:10;18.00;62.90
12874;DHT22;6505;51.114;13.128;2023-04-01T12:35:59;18.00;62.90
12874;DHT22;6505;51.114;13.128;2023-04-01T12:38:44;18.00;62.70
12874;DHT22;6505;51.114;13.128;2023-04-01T12:41:29;18.00;62.70
12874;DHT22;6505;51.114;13.128;2023-04-01T12:47:55;18.00;62.40
12874;DHT22;6505;51.114;13.128;2023-04-01T12:51:20;18.10;61.70
12874;DHT22;6505;51.114;13.128;2023-04-01T12:54:17;18.10;61.30
12874;DHT22;6505;51.114;13.128;2023-04-01T12:57:09;18.10;60.70
12874;DHT22;6505;51.114;13.128;2023-04-01T13:00:03;18.10;60.80
12874;DHT22;6505;51.114;13.128;2023-04-01T13:03:03;18.10;61.10
12874;DHT22;6505;51.114;13.128;2023-04-01T13:06:00;18.10;60.90
12874;DHT22;6505;51.114;13.128;2023-04-01T13:08:55;18.10;60.60
12874;DHT22;6505;51.114;13.128;2023-04-01T13:11:38;18.10;60.10
12874;DHT22;6505;51.114;13.128;2023-04-01T13:14:30;18.10;60.00
12874;DHT22;6505;51.114;13.128;2023-04-01T13:17:11;18.20;60.10
12874;DHT22;6505;51.114;13.128;2023-04-01T13:19:47;18.20;60.00
12874;DHT22;6505;51.114;13.128;2023-04-01T13:22:48;18.10;60.10
12874;DHT22;6505;51.114;13.128;2023-04-01T13:25:33;18.10;59.70
12874;DHT22;6505;51.114;13.128;2023-04-01T13:28:12;18.20;59.70
12874;DHT22;6505;51.114;13.128;2023-04-01T13:30:51;18.20;59.80
12874;DHT22;6505;51.114;13.128;2023-04-01T13:33:30;18.20;60.00
12874;DHT22;6505;51.114;13.128;2023-04-01T13:36:17;18.20;60.00
12874;DHT22;6505;51.114;13.128;2023-04-01T13:39:04;18.20;60.00
12874;DHT22;6505;51.114;13.128;2023-04-01T13:41:58;18.20;60.30
12874;DHT22;6505;51.114;13.128;2023-04-01T13:44:41;18.20;60.00
12874;DHT22;6505;51.114;13.128;2023-04-01T13:47:26;18.20;59.90
12874;DHT22;6505;51.114;13.128;2023-04-01T13:50:23;18.20;59.90
12874;DHT22;6505;51.114;13.128;2023-04-01T13:53:29;18.20;59.90
12874;DHT22;6505;51.114;13.128;2023-04-01T13:56:19;18.30;60.10
12874;DHT22;6505;51.114;13.128;2023-04-01T13:59:15;18.30;59.70
12874;DHT22;6505;51.114;13.128;2023-04-01T14:02:31;18.30;59.80
12874;DHT22;6505;51.114;13.128;2023-04-01T14:05:32;18.30;59.60
12874;DHT22;6505;51.114;13.128;2023-04-01T14:08:17;18.30;59.70
12874;DHT22;6505;51.114;13.128;2023-04-01T14:11:03;18.30;59.90
12874;DHT22;6505;51.114;13.128;2023-04-01T14:13:46;18.20;60.10
12874;DHT22;6505;51.114;13.128;2023-04-01T14:16:55;18.30;60.20
12874;DHT22;6505;51.114;13.128;2023-04-01T14:23:23;18.20;60.40
12874;DHT22;6505;51.114;13.128;2023-04-01T14:26:11;18.30;60.40
12874;DHT22;6505;51.114;13.128;2023-04-01T14:28:54;18.30;60.70
12874;DHT22;6505;51.114;13.128;2023-04-01T14:31:39;18.30;60.90
12874;DHT22;6505;51.114;13.128;2023-04-01T14:34:24;18.20;60.80
12874;DHT22;6505;51.114;13.128;2023-04-01T14:37:25;18.20;60.80
12874;DHT22;6505;51.114;13.128;2023-04-01T14:40:26;18.20;61.10
12874;DHT22;6505;51.114;13.128;2023-04-01T14:46:27;18.30;61.10
12874;DHT22;6505;51.114;13.128;2023-04-01T14:49:17;18.20;61.00
12874;DHT22;6505;51.114;13.128;2023-04-01T14:51:50;18.30;61.00
12874;DHT22;6505;51.114;13.128;2023-04-01T14:54:30;18.20;60.80
12874;DHT22;6505;51.114;13.128;2023-04-01T14:57:09;18.20;60.50
12874;DHT22;6505;51.114;13.128;2023-04-01T14:59:41;18.30;60.60
12874;DHT22;6505;51.114;13.128;2023-04-01T15:05:27;18.30;60.50
12874;DHT22;6505;51.114;13.128;2023-04-01T15:08:09;18.30;60.30
12874;DHT22;6505;51.114;13.128;2023-04-01T15:11:13;18.30;60.40
12874;DHT22;6505;51.114;13.128;2023-04-01T15:16:55;18.30;60.00
12874;DHT22;6505;51.114;13.128;2023-04-01T15:19:44;18.30;60.40
12874;DHT22;6505;51.114;13.128;2023-04-01T15:22:41;18.30;60.40
12874;DHT22;6505;51.114;13.128;2023-04-01T15:25:33;18.30;60.60
12874;DHT22;6505;51.114;13.128;2023-04-01T15:28:19;18.40;60.80
12874;DHT22;6505;51.114;13.128;2023-04-01T15:31:03;18.30;61.40
12874;DHT22;6505;51.114;13.128;2023-04-01T15:33:56;18.30;61.00
12874;DHT22;6505;51.114;13.128;2023-04-01T15:36:41;18.30;60.90
12874;DHT22;6505;51.114;13.128;2023-04-01T15:39:14;18.30;60.50
12874;DHT22;6505;51.114;13.128;2023-04-01T15:41:58;18.30;60.40
12874;DHT22;6505;51.114;13.128;2023-04-01T15:44:50;18.30;60.70
12874;DHT22;6505;51.114;13.128;2023-04-01T15:47:33;18.30;60.90
12874;DHT22;6505;51.114;13.128;2023-04-01T15:50:24;18.30;60.90
12874;DHT22;6505;51.114;13.128;2023-04-01T15:53:22;18.30;60.70
12874;DHT22;6505;51.114;13.128;2023-04-01T15:56:14;18.30;60.70
12874;DHT22;6505;51.114;13.128;2023-04-01T15:58:54;18.30;60.70
12874;DHT22;6505;51.114;13.128;2023-04-01T16:01:42;18.30;60.60
12874;DHT22;6505;51.114;13.128;2023-04-01T16:07:35;18.30;60.30
12874;DHT22;6505;51.114;13.128;2023-04-01T16:10:23;18.30;60.20
12874;DHT22;6505;51.114;13.128;2023-04-01T16:13:15;18.30;60.30
12874;DHT22;6505;51.114;13.128;2023-04-01T16:16:00;18.30;60.30
12874;DHT22;6505;51.114;13.128;2023-04-01T16:18:49;18.30;60.70
12874;DHT22;6505;51.114;13.128;2023-04-01T16:21:36;18.30;60.90
12874;DHT22;6505;51.114;13.128;2023-04-01T16:24:14;18.30;61.10
12874;DHT22;6505;51.114;13.128;2023-04-01T16:26:52;18.30;61.10
12874;DHT22;6505;51.114;13.128;2023-04-01T16:29:27;18.30;61.10
12874;DHT22;6505;51.114;13.128;2023-04-01T16:32:17;18.20;60.70
12874;DHT22;6505;51.114;13.128;2023-04-01T16:35:03;18.30;61.10
12874;DHT22;6505;51.114;13.128;2023-04-01T16:37:46;18.30;61.40
12874;DHT22;6505;51.114;13.128;2023-04-01T16:40:25;18.30;61.30
12874;DHT22;6505;51.114;13.128;2023-04-01T16:43:14;18.30;61.30
12874;DHT22;6505;51.114;13.128;2023-04-01T16:45:57;18.30;61.50
12874;DHT22;6505;51.114;13.128;2023-04-01T16:48:52;18.20;61.40
12874;DHT22;6505;51.114;13.128;2023-04-01T16:51:37;18.20;61.40
12874;DHT22;6505;51.114;13.128;2023-04-01T16:54:17;18.20;61.60
12874;DHT22;6505;51.114;13.128;2023-04-01T16:56:56;18.20;61.50
12874;DHT22;6505;51.114;13.128;2023-04-01T16:59:35;18.20;61.40
12874;DHT22;6505;51.114;13.128;2023-04-01T17:02:11;18.20;61.30
12874;DHT22;6505;51.114;13.128;2023-04-01T17:04:44;18.20;61.40
12874;DHT22;6505;51.114;13.128;2023-04-01T17:07:30;18.20;61.70
12874;DHT22;6505;51.114;13.128;2023-04-01T17:10:22;18.20;62.10
12874;DHT22;6505;51.114;13.128;2023-04-01T17:13:12;18.20;62.50
12874;DHT22;6505;51.114;13.128;2023-04-01T17:15:55;18.20;62.50
12874;DHT22;6505;51.114;13.128;2023-04-01T17:18:37;18.20;62.70
12874;DHT22;6505;51.114;13.128;2023-04-01T17:21:18;18.20;62.60
12874;DHT22;6505;51.114;13.128;2023-04-01T17:24:02;18.20;62.50
12874;DHT22;6505;51.114;13.128;2023-04-01T17:26:45;18.20;62.60
12874;DHT22;6505;51.114;13.128;2023-04-01T17:29:24;18.20;62.40
12874;DHT22;6505;51.114;13.128;2023-04-01T17:32:05;18.20;62.80
12874;DHT22;6505;51.114;13.128;2023-04-01T17:34:46;18.10;62.40
12874;DHT22;6505;51.114;13.128;2023-04-01T17:37:36;18.10;62.70
12874;DHT22;6505;51.114;13.128;2023-04-01T17:40:24;18.10;62.80
12874;DHT22;6505;51.114;13.128;2023-04-01T17:43:10;18.10;63.00
12874;DHT22;6505;51.114;13.128;2023-04-01T17:45:53;18.10;62.90
12874;DHT22;6505;51.114;13.128;2023-04-01T17:48:31;18.10;62.80
12874;DHT22;6505;51.114;13.128;2023-04-01T17:51:19;18.10;62.90
12874;DHT22;6505;51.114;13.128;2023-04-01T17:53:59;18.10;62.90
12874;DHT22;6505;51.114;13.128;2023-04-01T17:56:48;18.10;62.90
12874;DHT22;6505;51.114;13.128;2023-04-01T17:59:35;18.00;62.90
12874;DHT22;6505;51.114;13.128;2023-04-01T18:02:17;18.10;62.90
12874;DHT22;6505;51.114;13.128;2023-04-01T18:08:26;18.10;63.40
12874;DHT22;6505;51.114;13.128;2023-04-01T18:11:13;18.00;63.10
12874;DHT22;6505;51.114;13.128;2023-04-01T18:13:59;18.00;63.20
12874;DHT22;6505;51.114;13.128;2023-04-01T18:16:49;18.00;63.30
12874;DHT22;6505;51.114;13.128;2023-04-01T18:19:32;18.00;63.40